Time;durP1;ratioP1;P1;durP2;ratioP2;P2;SDS_P1;SDS_P2;PMS_P1;PMS_P2;Temp;Humidity;BMP_temperature;BMP_pressure;BME280_temperature;BME280_humidity;BME280_pressure;Samples;Min_cycle;Max_cycle;Signal;HPM_P1;HPM_P2
2023/02/22 00:04:20;;;;;;;5.20;3.60;;;;;;;0.62;82.01;98829.48;95116;1267;959504;-71
2023/02/22 00:06:49;;;;;;;5.40;3.90;;;;;;;0.68;81.51;98835.41;106480;1274;60790;-71
2023/02/22 00:09:20;;;;;;;5.40;3.80;;;;;;;0.65;81.57;98842.65;106746;1277;72945;-69
2023/02/22 00:11:49;;;;;;;6.90;4.70;;;;;;;0.60;81.64;98851.56;106609;1271;71369;-69
2023/02/22 00:14:21;;;;;;;5.50;4.30;;;;;;;0.52;80.72;98851.52;108023;1272;72152;-70
2023/02/22 00:16:49;;;;;;;4.50;3.40;;;;;;;0.48;80.92;98853.27;107872;1271;61425;-70
2023/02/22 00:19:18;;;;;;;5.20;3.80;;;;;;;0.56;80.71;98857.99;106978;1271;59389;-75
2023/02/22 00:21:52;;;;;;;5.80;4.30;;;;;;;0.57;80.58;98854.27;108328;1270;73837;-77
2023/02/22 00:24:23;;;;;;;6.90;4.50;;;;;;;0.51;80.49;98859.23;108374;1270;70036;-78
2023/02/22 00:26:57;;;;;;;;;;;;;;;0.46;80.42;98868.92;106037;1276;71717;-67
2023/02/22 00:29:25;;;;;;;5.20;3.60;;;;;;;0.42;79.81;98868.72;105542;1275;60545;-68
2023/02/22 00:31:54;;;;;;;5.30;4.10;;;;;;;0.47;79.85;98873.35;105437;1277;60520;-70
2023/02/22 00:34:23;;;;;;;4.80;3.80;;;;;;;0.45;80.03;98880.46;106212;1271;74102;-70
2023/02/22 00:36:51;;;;;;;6.60;5.30;;;;;;;0.41;80.38;98891.98;106233;1270;71028;-71
2023/02/22 00:39:20;;;;;;;6.30;5.00;;;;;;;0.36;80.36;98893.58;106265;1271;72775;-71
2023/02/22 00:41:48;;;;;;;7.50;5.60;;;;;;;0.33;80.18;98900.80;105611;1270;60682;-67
2023/02/22 00:44:16;;;;;;;7.10;4.30;;;;;;;0.39;80.13;98903.14;105384;1276;59238;-67
2023/02/22 00:46:45;;;;;;;7.10;5.10;;;;;;;0.42;80.44;98909.13;105564;1271;73255;-69
2023/02/22 00:49:15;;;;;;;8.40;5.90;;;;;;;0.41;80.56;98916.38;105596;1276;70526;-68
2023/02/22 00:51:44;;;;;;;8.10;6.30;;;;;;;0.37;80.48;98918.05;105189;1275;73973;-67
2023/02/22 00:54:13;;;;;;;8.50;5.50;;;;;;;0.31;80.73;98923.98;104952;1275;61186;-68
2023/02/22 00:56:42;;;;;;;7.20;4.70;;;;;;;0.33;81.09;98927.27;105337;1273;60769;-70
2023/02/22 00:59:10;;;;;;;6.10;5.00;;;;;;;0.47;81.03;98937.42;105214;1271;73119;-69
2023/02/22 01:01:39;;;;;;;6.10;4.20;;;;;;;0.49;80.98;98942.02;105025;1270;71396;-71
2023/02/22 01:04:08;;;;;;;6.00;4.70;;;;;;;0.45;81.01;98945.09;105089;1277;71771;-68
2023/02/22 01:06:39;;;;;;;7.00;4.80;;;;;;;0.40;80.47;98947.64;105501;1270;60433;-68
2023/02/22 01:09:08;;;;;;;5.70;4.20;;;;;;;0.33;80.24;98948.33;105080;1275;60600;-68
2023/02/22 01:11:36;;;;;;;6.90;4.60;;;;;;;0.37;79.43;98951.69;105209;1273;72825;-70
2023/02/22 01:14:08;;;;;;;7.10;5.50;;;;;;;0.37;78.75;98960.52;105665;1276;69518;-69
2023/02/22 01:16:36;;;;;;;6.80;4.90;;;;;;;0.29;78.48;98962.05;105202;1273;70866;-69
2023/02/22 01:19:08;;;;;;;6.80;5.20;;;;;;;0.21;78.32;98964.95;105524;1273;60592;-67
2023/02/22 01:21:39;;;;;;;7.10;5.30;;;;;;;0.14;78.32;98970.04;105035;1273;61657;-68
2023/02/22 01:24:07;;;;;;;6.90;4.50;;;;;;;0.07;78.13;98975.77;105083;1277;71736;-68
2023/02/22 01:26:37;;;;;;;9.50;6.20;;;;;;;0.12;77.83;98980.80;104839;1273;71781;-68
2023/02/22 01:29:07;;;;;;;8.50;5.90;;;;;;;0.16;78.29;98980.83;104896;1276;72828;-69
2023/02/22 01:31:35;;;;;;;8.90;5.50;;;;;;;0.13;78.17;98985.08;105381;1277;60543;-70
2023/02/22 01:34:05;;;;;;;8.80;6.60;;;;;;;0.08;78.74;98989.80;105591;1274;61326;-67
2023/02/22 01:36:36;;;;;;;9.60;6.60;;;;;;;0.08;78.83;98990.91;105529;1276;75058;-71
2023/02/22 01:39:05;;;;;;;8.70;6.40;;;;;;;0.06;78.56;98995.21;105458;1276;69231;-69
2023/02/22 01:41:33;;;;;;;9.20;7.00;;;;;;;0.15;78.14;98998.52;105550;1274;71741;-68
2023/02/22 01:44:34;;;;;;;8.10;6.00;;;;;;;0.19;77.88;99003.11;105382;1274;61012;-70
2023/02/22 01:47:04;;;;;;;8.80;6.10;;;;;;;0.12;77.79;99001.55;106515;1273;60109;-68
2023/02/22 01:49:45;;;;;;;9.70;7.20;;;;;;;0.04;77.12;99008.44;107532;1271;71766;-70
2023/02/22 01:52:19;;;;;;;12.20;6.70;;;;;;;-0.03;77.10;99011.89;108089;1273;70142;-70
2023/02/22 01:54:52;;;;;;;7.80;5.40;;;;;;;-0.04;76.55;99019.16;107806;1271;70737;-68
2023/02/22 01:57:22;;;;;;;7.10;5.60;;;;;;;0.05;76.34;99021.96;107664;1272;59589;-70
2023/02/22 01:59:53;;;;;;;8.60;6.00;;;;;;;0.07;76.17;99029.80;107037;1271;60057;-69
2023/02/22 02:02:23;;;;;;;8.60;5.10;;;;;;;0.03;76.24;99035.48;106541;1273;72991;-68
2023/02/22 02:04:53;;;;;;;6.30;4.40;;;;;;;-0.00;76.11;99039.92;106560;1273;70315;-71
2023/02/22 02:07:21;;;;;;;7.70;5.20;;;;;;;-0.04;75.96;99046.14;106797;1272;72357;-73
2023/02/22 02:09:55;;;;;;;5.00;4.10;;;;;;;-0.08;75.91;99054.48;105903;1271;60551;-72
2023/02/22 02:12:24;;;;;;;6.40;4.10;;;;;;;-0.00;75.92;99057.35;107681;1271;61030;-72
2023/02/22 02:14:53;;;;;;;6.50;4.20;;;;;;;0.07;75.62;99059.77;107942;1273;73638;-70
2023/02/22 02:17:31;;;;;;;5.40;4.10;;;;;;;0.01;75.20;99060.02;107056;1273;69962;-69
2023/02/22 02:20:13;;;;;;;7.10;4.60;;;;;;;-0.08;74.37;99069.92;106708;1273;73758;-69
2023/02/22 02:23:00;;;;;;;7.50;4.70;;;;;;;-0.18;74.05;99074.52;106613;1276;60574;-71
2023/02/22 02:26:08;;;;;;;6.20;3.90;;;;;;;-0.26;74.13;99080.88;106614;1274;59413;-69
2023/02/22 02:29:24;;;;;;;5.20;3.40;;;;;;;-0.30;73.31;99080.96;108063;1273;72986;-72
2023/02/22 02:32:29;;;;;;;5.40;3.90;;;;;;;-0.23;72.91;99093.15;107674;1274;70462;-72
2023/02/22 02:35:11;;;;;;;7.20;4.20;;;;;;;-0.31;73.26;99093.96;106526;1274;71772;-73
2023/02/22 02:37:55;;;;;;;6.60;4.40;;;;;;;-0.39;73.28;99097.48;106437;1274;60311;-70
2023/02/22 02:41:03;;;;;;;5.20;3.80;;;;;;;-0.41;73.64;99104.45;106713;1276;60361;-72
2023/02/22 02:43:42;;;;;;;5.40;4.00;;;;;;;-0.43;73.14;99106.14;104709;1285;72504;-69
2023/02/22 02:46:13;;;;;;;4.30;3.00;;;;;;;-0.38;72.81;99110.43;104309;1273;71410;-72
2023/02/22 02:48:55;;;;;;;5.00;3.70;;;;;;;-0.30;72.95;99112.35;104657;1273;73518;-71
2023/02/22 02:51:26;;;;;;;4.60;3.20;;;;;;;-0.36;72.27;99116.04;104689;1274;60587;-71
2023/02/22 02:53:55;;;;;;;5.30;4.00;;;;;;;-0.43;72.34;99124.39;104396;1279;60546;-67
2023/02/22 02:56:23;;;;;;;5.00;3.80;;;;;;;-0.50;72.40;99129.75;104099;1279;74107;-67
2023/02/22 02:58:52;;;;;;;6.70;4.10;;;;;;;-0.54;71.99;99134.29;104135;1274;69549;-66
2023/02/22 03:01:51;;;;;;;5.30;3.20;;;;;;;-0.59;72.07;99135.34;104433;1274;71977;-71
2023/02/22 03:04:37;;;;;;;4.90;3.20;;;;;;;-0.50;71.56;99139.02;104660;1274;61477;-71
2023/02/22 03:07:42;;;;;;;5.40;3.60;;;;;;;-0.48;71.33;99144.98;104723;1280;60466;-71
2023/02/22 03:10:37;;;;;;;5.70;3.60;;;;;;;-0.55;71.45;99148.30;104702;1279;73625;-72
2023/02/22 03:13:35;;;;;;;5.20;3.80;;;;;;;-0.65;71.17;99157.98;104766;1274;69496;-72
2023/02/22 03:16:41;;;;;;;5.10;3.80;;;;;;;-0.72;70.53;99163.19;104541;1279;72671;-71
2023/02/22 03:19:15;;;;;;;6.30;4.30;;;;;;;-0.79;70.77;99167.19;104351;1273;60520;-74
2023/02/22 03:22:07;;;;;;;4.90;3.60;;;;;;;-0.84;70.99;99172.92;104688;1276;60433;-71
2023/02/22 03:24:41;;;;;;;5.50;3.70;;;;;;;-0.72;71.22;99171.02;104671;1273;72804;-70
2023/02/22 03:27:17;;;;;;;5.10;4.00;;;;;;;-0.65;71.10;99177.98;104573;1276;69645;-72
2023/02/22 03:29:49;;;;;;;6.20;3.70;;;;;;;-0.68;70.98;99181.55;104606;1274;73920;-73
2023/02/22 03:32:21;;;;;;;5.90;4.00;;;;;;;-0.71;70.96;99183.83;104719;1274;60760;-71
2023/02/22 03:34:55;;;;;;;6.00;4.20;;;;;;;-0.72;70.92;99189.48;104608;1279;60473;-73
2023/02/22 03:37:28;;;;;;;12.10;9.40;;;;;;;-0.74;70.59;99194.66;104756;1280;71773;-71
2023/02/22 03:39:56;;;;;;;11.30;8.20;;;;;;;-0.76;70.78;99194.80;104657;1282;69483;-72
2023/02/22 03:42:30;;;;;;;9.10;5.90;;;;;;;-0.76;70.70;99199.66;104699;1273;73613;-71
2023/02/22 03:45:00;;;;;;;12.90;8.50;;;;;;;-0.66;70.60;99204.16;104865;1274;61119;-70
2023/02/22 03:47:36;;;;;;;14.20;9.60;;;;;;;-0.65;70.48;99209.30;104429;1273;61395;-71
2023/02/22 03:50:11;;;;;;;10.40;7.60;;;;;;;-0.70;71.12;99216.83;104482;1273;75328;-70
2023/02/22 03:52:43;;;;;;;9.10;6.60;;;;;;;-0.75;71.48;99224.78;104635;1277;71601;-73
2023/02/22 03:55:16;;;;;;;8.40;6.50;;;;;;;-0.78;71.91;99228.15;104603;1278;72204;-72
2023/02/22 03:57:48;;;;;;;9.80;7.00;;;;;;;-0.85;72.49;99232.61;104561;1276;60632;-71
2023/02/22 04:00:22;;;;;;;8.90;5.60;;;;;;;-0.91;72.96;99229.90;104624;1272;60633;-71
2023/02/22 04:02:50;;;;;;;9.80;6.40;;;;;;;-0.84;73.30;99235.70;104582;1274;72624;-71
2023/02/22 04:05:19;;;;;;;9.90;6.40;;;;;;;-0.82;73.39;99237.45;104593;1274;71353;-68
2023/02/22 04:07:48;;;;;;;10.00;6.80;;;;;;;-0.86;73.74;99238.98;104727;1274;70594;-71
2023/02/22 04:10:16;;;;;;;10.00;6.20;;;;;;;-0.92;74.30;99241.80;104587;1280;60463;-68
2023/02/22 04:12:45;;;;;;;8.90;6.10;;;;;;;-0.96;74.62;99249.26;104575;1277;61613;-68
2023/02/22 04:15:16;;;;;;;10.60;6.20;;;;;;;-1.00;74.84;99257.18;104334;1278;74389;-71
2023/02/22 04:17:44;;;;;;;10.70;7.00;;;;;;;-0.94;74.86;99258.13;104344;1277;72351;-70
2023/02/22 04:20:18;;;;;;;8.80;6.00;;;;;;;-0.88;74.78;99262.79;104464;1281;72046;-68
2023/02/22 04:22:53;;;;;;;7.80;5.70;;;;;;;-0.96;74.57;99274.45;104609;1273;61159;-69
2023/02/22 04:25:22;;;;;;;10.90;6.70;;;;;;;-1.07;74.92;99275.67;104459;1273;61222;-71
2023/02/22 04:27:51;;;;;;;10.00;6.70;;;;;;;-1.13;75.07;99276.00;104700;1276;74535;-68
2023/02/22 04:30:28;;;;;;;7.70;6.00;;;;;;;-1.16;75.36;99276.02;104339;1276;71357;-68
2023/02/22 04:32:58;;;;;;;8.50;5.80;;;;;;;-1.15;75.32;99280.46;104281;1279;73070;-70
2023/02/22 04:35:27;;;;;;;7.90;5.40;;;;;;;-1.04;74.87;99287.84;104806;1277;60643;-70
2023/02/22 04:37:55;;;;;;;8.60;5.20;;;;;;;-1.02;74.20;99288.08;104625;1274;60906;-71
2023/02/22 04:40:23;;;;;;;8.60;5.50;;;;;;;-1.07;73.71;99296.75;104610;1274;75056;-65
2023/02/22 04:42:56;;;;;;;10.20;7.00;;;;;;;-1.12;73.43;99301.94;104442;1276;70609;-67
2023/02/22 04:45:25;;;;;;;9.80;5.60;;;;;;;-1.16;73.23;99305.94;104554;1274;72281;-69
2023/02/22 04:47:53;;;;;;;11.90;6.40;;;;;;;-1.23;72.89;99314.35;104685;1278;62214;-72
2023/02/22 04:50:22;;;;;;;7.50;4.90;;;;;;;-1.19;72.72;99314.23;104671;1274;60472;-71
2023/02/22 04:52:51;;;;;;;10.80;5.90;;;;;;;-1.14;72.93;99316.17;104484;1273;73700;-72
2023/02/22 04:55:21;;;;;;;7.00;5.10;;;;;;;-1.14;73.06;99315.52;104513;1274;71610;-73
2023/02/22 04:57:50;;;;;;;7.30;5.10;;;;;;;-1.15;73.54;99324.27;104720;1274;72635;-74
2023/02/22 05:00:20;;;;;;;8.80;6.20;;;;;;;-1.16;73.32;99329.69;104554;1278;60575;-73
2023/02/22 05:02:49;;;;;;;10.00;6.70;;;;;;;-1.18;73.26;99335.23;104582;1276;60556;-71
2023/02/22 05:05:20;;;;;;;11.00;6.00;;;;;;;-1.22;73.23;99339.28;104642;1279;74897;-73
2023/02/22 05:07:51;;;;;;;6.70;5.40;;;;;;;-1.13;73.29;99341.44;104515;1274;71443;-72
2023/02/22 05:10:20;;;;;;;9.80;6.20;;;;;;;-1.09;73.02;99348.54;104484;1274;72447;-70
2023/02/22 05:12:50;;;;;;;10.00;6.50;;;;;;;-1.13;73.30;99352.10;104565;1274;60477;-73
2023/02/22 05:15:19;;;;;;;9.80;6.70;;;;;;;-1.17;73.28;99352.17;104495;1273;60474;-72
2023/02/22 05:17:49;;;;;;;10.80;7.30;;;;;;;-1.20;73.40;99359.16;104324;1274;73016;-69
2023/02/22 05:20:29;;;;;;;9.70;6.30;;;;;;;-1.23;73.69;99366.48;104410;1278;68165;-69
2023/02/22 05:22:58;;;;;;;8.70;5.50;;;;;;;-1.20;73.44;99372.70;104449;1280;71503;-69
2023/02/22 05:25:27;;;;;;;12.90;6.10;;;;;;;-1.12;73.25;99370.95;104471;1280;60562;-72
2023/02/22 05:27:57;;;;;;;9.80;6.60;;;;;;;-1.13;73.24;99380.42;104543;1277;60424;-69
2023/02/22 05:30:27;;;;;;;11.30;6.20;;;;;;;-1.18;73.64;99381.45;104291;1276;75107;-71
2023/02/22 05:32:56;;;;;;;11.10;7.30;;;;;;;-1.24;73.31;99387.92;104646;1274;70597;-68
2023/02/22 05:35:24;;;;;;;9.70;6.90;;;;;;;-1.30;73.56;99397.19;104442;1274;73048;-69
2023/02/22 05:37:53;;;;;;;10.60;6.90;;;;;;;-1.33;73.66;99399.64;104657;1275;60512;-69
2023/02/22 05:40:23;;;;;;;11.20;7.10;;;;;;;-1.29;73.80;99409.30;104480;1274;60501;-72
2023/02/22 05:42:51;;;;;;;12.10;7.60;;;;;;;-1.17;73.93;99417.67;104653;1277;73455;-72
2023/02/22 05:45:21;;;;;;;12.50;8.10;;;;;;;-1.14;74.20;99419.59;104578;1273;71296;-72
2023/02/22 05:47:49;;;;;;;8.10;6.00;;;;;;;-1.17;74.20;99428.29;104659;1274;70631;-72
2023/02/22 05:50:18;;;;;;;12.20;7.80;;;;;;;-1.21;74.36;99430.61;104363;1274;60475;-72
2023/02/22 05:52:49;;;;;;;10.80;7.40;;;;;;;-1.25;74.46;99436.80;104577;1273;60850;-70
2023/02/22 05:55:20;;;;;;;12.20;7.50;;;;;;;-1.32;74.57;99439.34;104348;1273;73303;-74
2023/02/22 05:57:48;;;;;;;13.10;7.70;;;;;;;-1.32;74.71;99444.58;104686;1279;70204;-69
2023/02/22 06:00:25;;;;;;;16.90;8.40;;;;;;;-1.24;74.61;99446.12;104713;1274;71685;-69
2023/02/22 06:03:01;;;;;;;13.30;8.60;;;;;;;-1.21;75.16;99449.56;104831;1278;60520;-71
2023/02/22 06:05:31;;;;;;;12.10;8.50;;;;;;;-1.22;75.59;99449.83;104637;1275;60402;-70
2023/02/22 06:08:00;;;;;;;12.20;8.00;;;;;;;-1.26;75.64;99457.20;104528;1274;73640;-73
2023/02/22 06:10:29;;;;;;;12.20;8.10;;;;;;;-1.32;75.79;99461.61;104442;1274;71404;-70
2023/02/22 06:13:00;;;;;;;12.10;7.40;;;;;;;-1.38;75.85;99466.34;104313;1274;72626;-73
2023/02/22 06:15:29;;;;;;;15.60;8.40;;;;;;;-1.31;76.03;99470.95;104616;1279;61796;-71
2023/02/22 06:17:57;;;;;;;13.20;7.90;;;;;;;-1.22;76.21;99476.42;104521;1274;60481;-71
2023/02/22 06:20:34;;;;;;;15.90;9.30;;;;;;;-1.25;76.46;99483.89;104379;1274;74103;-71
2023/02/22 06:23:03;;;;;;;17.40;10.50;;;;;;;-1.29;76.37;99485.88;104717;1274;71093;-71
2023/02/22 06:25:35;;;;;;;13.20;9.30;;;;;;;-1.35;76.40;99489.22;104371;1274;305603;-73
2023/02/22 06:29:37;;;;;;;17.70;10.10;;;;;;;-1.41;76.62;99496.58;102700;1292;602125;-71
2023/02/22 06:32:05;;;;;;;14.50;9.60;;;;;;;-1.41;77.00;99502.63;105258;1268;61392;-73
2023/02/22 06:34:34;;;;;;;16.40;9.60;;;;;;;-1.28;76.73;99500.27;105265;1269;61073;-73
2023/02/22 06:37:02;;;;;;;16.60;11.20;;;;;;;-1.27;77.00;99503.98;105415;1270;71798;-72
2023/02/22 06:39:31;;;;;;;18.70;11.00;;;;;;;-1.32;77.13;99506.77;105386;1272;70574;-73
2023/02/22 06:42:02;;;;;;;16.20;11.60;;;;;;;-1.37;77.09;99516.13;105255;1271;72130;-71
2023/02/22 06:44:31;;;;;;;13.70;10.10;;;;;;;-1.41;77.20;99516.88;105206;1267;59799;-72
2023/02/22 06:47:00;;;;;;;14.60;9.80;;;;;;;-1.35;77.28;99524.01;105159;1266;59390;-73
2023/02/22 06:49:28;;;;;;;15.30;9.60;;;;;;;-1.21;77.48;99524.47;105341;1267;71290;-74
2023/02/22 06:51:56;;;;;;;15.10;9.90;;;;;;;-1.17;76.87;99526.84;105261;1266;71431;-73
2023/02/22 06:54:26;;;;;;;15.70;11.00;;;;;;;-1.20;77.26;99535.33;105310;1269;70932;-71
2023/02/22 06:56:54;;;;;;;16.10;10.50;;;;;;;-1.17;77.45;99535.19;105334;1266;60459;-73
2023/02/22 06:59:22;;;;;;;17.10;10.60;;;;;;;-1.15;77.19;99536.45;105389;1266;60702;-73
2023/02/22 07:01:50;;;;;;;13.70;9.30;;;;;;;-1.14;77.01;99536.55;105273;1266;72460;-72
2023/02/22 07:04:19;;;;;;;14.20;9.20;;;;;;;-1.03;76.62;99537.05;105145;1266;69624;-74
2023/02/22 07:06:48;;;;;;;15.20;10.70;;;;;;;-0.97;77.07;99546.23;105279;1266;71747;-73
2023/02/22 07:09:19;;;;;;;13.80;9.50;;;;;;;-0.95;77.03;99550.63;105677;1260;59740;-73
2023/02/22 07:11:48;;;;;;;14.10;10.20;;;;;;;-0.94;76.66;99550.20;105731;1260;59647;-72
2023/02/22 07:14:17;;;;;;;14.20;9.70;;;;;;;-0.92;76.75;99558.30;105795;1262;73242;-74
2023/02/22 07:16:46;;;;;;;14.00;9.40;;;;;;;-0.88;76.65;99560.07;105717;1258;70834;-72
2023/02/22 07:19:14;;;;;;;12.40;8.50;;;;;;;-0.70;76.36;99561.16;105753;1257;72546;-72
2023/02/22 07:21:43;;;;;;;13.20;9.50;;;;;;;-0.56;76.09;99558.16;105864;1257;60669;-76
2023/02/22 07:24:13;;;;;;;19.40;12.90;;;;;;;-0.51;75.56;99563.94;107020;1257;61097;-77
2023/02/22 07:26:41;;;;;;;19.00;12.80;;;;;;;-0.51;75.22;99563.08;107593;1259;72994;-74
2023/02/22 07:29:10;;;;;;;25.70;17.40;;;;;;;-0.48;75.13;99564.41;107584;1254;70055;-75
2023/02/22 07:31:38;;;;;;;21.60;15.10;;;;;;;-0.44;74.53;99564.98;107412;1254;72640;-74
2023/02/22 07:34:07;;;;;;;17.60;10.50;;;;;;;-0.40;74.17;99568.92;106746;1254;62180;-76
2023/02/22 07:36:35;;;;;;;15.10;10.30;;;;;;;-0.24;73.99;99574.15;106725;1259;59789;-74
2023/02/22 07:39:07;;;;;;;16.70;11.10;;;;;;;-0.12;73.05;99577.18;107088;1255;71755;-75
2023/02/22 07:41:37;;;;;;;18.20;12.60;;;;;;;-0.11;72.42;99578.48;108019;1254;69519;-77
2023/02/22 07:44:13;;;;;;;15.20;9.90;;;;;;;-0.10;72.04;99577.86;108047;1257;72582;-76
2023/02/22 07:46:46;;;;;;;15.30;10.40;;;;;;;-0.08;71.92;99584.38;106462;1255;60565;-76
2023/02/22 07:49:15;;;;;;;15.90;11.70;;;;;;;-0.05;72.17;99583.08;106515;1257;61405;-73
2023/02/22 07:51:43;;;;;;;15.50;10.70;;;;;;;0.03;72.67;99585.52;106458;1255;73028;-76
2023/02/22 07:54:12;;;;;;;14.30;9.20;;;;;;;0.17;72.24;99588.75;106674;1254;69254;-76
2023/02/22 07:56:45;;;;;;;12.60;9.20;;;;;;;0.35;71.53;99592.71;106670;1259;70633;-76
2023/02/22 07:59:15;;;;;;;;;;;;;;;0.40;70.68;99594.17;106760;1255;59737;-78
2023/02/22 08:01:43;;;;;;;13.00;8.40;;;;;;;0.35;70.35;99592.95;108771;1260;60212;-76
2023/02/22 08:04:11;;;;;;;11.70;9.10;;;;;;;0.33;69.88;99597.91;109549;1254;72877;-77
2023/02/22 08:06:39;;;;;;;13.50;8.90;;;;;;;0.37;69.88;99599.76;109473;1254;68887;-76
2023/02/22 08:09:08;;;;;;;12.40;8.40;;;;;;;0.47;70.17;99600.30;109322;1254;72109;-75
2023/02/22 08:11:37;;;;;;;12.30;9.20;;;;;;;0.56;69.45;99599.42;108967;1254;59521;-74
2023/02/22 08:14:06;;;;;;;13.50;10.20;;;;;;;0.62;68.91;99597.83;108359;1257;60326;-70
2023/02/22 08:16:34;;;;;;;10.50;7.60;;;;;;;0.63;68.71;99597.63;107112;1258;72484;-71
2023/02/22 08:19:02;;;;;;;15.80;9.20;;;;;;;0.71;68.03;99599.44;106705;1257;71787;-70
2023/02/22 08:21:32;;;;;;;14.50;10.00;;;;;;;0.72;67.99;99611.72;106887;1257;72735;-73
2023/02/22 08:24:00;;;;;;;22.20;12.60;;;;;;;0.69;68.06;99610.78;108006;1256;59628;-74
2023/02/22 08:26:31;;;;;;;14.90;9.80;;;;;;;0.65;68.14;99616.29;108655;1254;60417;-74
2023/02/22 08:29:00;;;;;;;13.10;8.90;;;;;;;0.61;67.78;99618.11;109040;1254;72085;-76
2023/02/22 08:31:29;;;;;;;12.30;8.90;;;;;;;0.59;67.90;99619.31;109160;1254;70200;-77
2023/02/22 08:33:59;;;;;;;12.10;8.80;;;;;;;0.64;68.05;99623.66;109348;1254;72126;-78
2023/02/22 08:36:29;;;;;;;12.70;8.30;;;;;;;0.75;68.47;99628.65;109412;1256;61411;-79
2023/02/22 08:38:58;;;;;;;11.30;8.20;;;;;;;0.97;68.05;99624.16;109283;1255;58246;-74
2023/02/22 08:41:26;;;;;;;10.50;7.50;;;;;;;1.06;67.30;99622.98;109375;1256;72741;-76
2023/02/22 08:44:01;;;;;;;12.40;8.60;;;;;;;1.07;66.91;99623.27;109396;1254;70279;-77
2023/02/22 08:46:30;;;;;;;12.10;8.30;;;;;;;1.08;66.62;99624.55;109429;1254;72645;-74
2023/02/22 08:48:58;;;;;;;10.30;8.60;;;;;;;1.15;67.09;99624.90;109344;1254;58274;-76
2023/02/22 08:51:27;;;;;;;11.10;8.10;;;;;;;1.25;66.84;99631.01;109257;1255;58699;-76
2023/02/22 08:53:55;;;;;;;11.30;8.90;;;;;;;1.33;66.68;99630.74;109184;1255;73316;-74
2023/02/22 08:56:23;;;;;;;10.40;8.70;;;;;;;1.42;66.75;99636.08;109305;1254;70268;-75
2023/02/22 08:58:53;;;;;;;18.90;13.00;;;;;;;1.48;65.44;99632.48;109389;1256;70732;-75
2023/02/22 09:01:23;;;;;;;47.90;28.60;;;;;;;1.50;64.83;99630.40;109283;1255;57878;-76
2023/02/22 09:04:00;;;;;;;54.90;35.60;;;;;;;1.49;64.36;99633.49;109200;1254;60356;-74
2023/02/22 09:06:30;;;;;;;43.20;25.20;;;;;;;1.51;63.92;99636.28;109046;1254;71484;-74
2023/02/22 09:09:01;;;;;;;23.60;14.90;;;;;;;1.53;63.66;99636.98;108995;1254;70368;-75
2023/02/22 09:11:29;;;;;;;22.40;15.40;;;;;;;1.70;63.54;99633.77;109080;1255;72464;-76
2023/02/22 09:14:01;;;;;;;16.10;9.40;;;;;;;1.87;63.31;99640.40;109153;1256;59524;-75
2023/02/22 09:16:32;;;;;;;14.60;9.50;;;;;;;1.96;63.20;99638.38;108895;1255;60365;-75
2023/02/22 09:19:01;;;;;;;11.90;8.90;;;;;;;2.05;62.85;99641.55;109240;1254;73260;-72
2023/02/22 09:21:30;;;;;;;10.20;7.10;;;;;;;2.14;62.08;99645.35;108920;1254;71534;-71
2023/02/22 09:24:07;;;;;;;10.50;8.20;;;;;;;2.25;61.51;99644.05;108758;1255;72585;-71
2023/02/22 09:26:38;;;;;;;10.80;7.70;;;;;;;2.39;62.70;99644.86;108791;1255;59905;-78
2023/02/22 09:29:10;;;;;;;9.70;7.90;;;;;;;2.51;61.34;99647.66;107402;1255;59630;-70
2023/02/22 09:31:39;;;;;;;10.30;7.90;;;;;;;2.52;60.81;99647.91;106089;1255;73305;-71
2023/02/22 09:34:12;;;;;;;8.40;6.20;;;;;;;2.50;60.45;99651.88;105809;1257;71136;-71
2023/02/22 09:36:42;;;;;;;11.20;7.60;;;;;;;2.47;60.25;99651.97;105791;1259;71599;-72
2023/02/22 09:39:10;;;;;;;9.30;6.90;;;;;;;2.39;59.19;99650.50;105919;1257;59630;-70
2023/02/22 09:41:54;;;;;;;8.60;6.90;;;;;;;2.23;58.75;99650.67;105637;1260;60111;-70
2023/02/22 09:44:26;;;;;;;9.40;6.70;;;;;;;2.09;59.17;99651.70;105700;1259;74245;-71
2023/02/22 09:46:55;;;;;;;9.30;7.20;;;;;;;2.07;59.26;99656.60;105974;1258;68962;-71
2023/02/22 09:49:24;;;;;;;10.10;7.60;;;;;;;2.15;59.88;99654.91;105658;1260;73949;-69
2023/02/22 09:52:01;;;;;;;10.90;7.90;;;;;;;2.22;59.63;99653.52;105876;1257;60801;-71
2023/02/22 09:54:39;;;;;;;12.30;8.50;;;;;;;2.21;58.90;99652.89;105906;1256;60185;-73
2023/02/22 09:57:10;;;;;;;9.70;7.50;;;;;;;2.19;59.11;99654.62;105816;1257;73079;-72
2023/02/22 09:59:45;;;;;;;10.10;7.80;;;;;;;2.19;59.12;99653.58;105916;1257;70368;-73
2023/02/22 10:02:28;;;;;;;12.00;8.50;;;;;;;2.18;58.97;99650.02;105793;1254;72976;-72
2023/02/22 10:05:21;;;;;;;14.40;10.00;;;;;;;2.28;59.58;99649.42;105452;1257;60528;-72
2023/02/22 10:07:53;;;;;;;14.80;9.30;;;;;;;2.50;58.79;99646.30;105808;1256;59746;-71
2023/02/22 10:10:33;;;;;;;11.20;8.20;;;;;;;2.70;59.53;99648.23;105610;1257;74157;-72
2023/02/22 10:13:12;;;;;;;12.30;8.10;;;;;;;2.84;57.85;99646.98;105665;1258;69642;-71
2023/02/22 10:16:05;;;;;;;8.90;6.70;;;;;;;2.85;57.90;99649.56;106009;1257;72555;-73
2023/02/22 10:19:02;;;;;;;8.00;5.80;;;;;;;2.78;57.62;99650.95;105942;1253;59699;-74
2023/02/22 10:21:56;;;;;;;7.20;4.90;;;;;;;2.81;58.28;99656.08;106075;1254;59615;-73
2023/02/22 10:24:38;;;;;;;7.50;6.70;;;;;;;3.09;58.85;99659.04;106193;1259;74218;-74
2023/02/22 10:27:12;;;;;;;8.30;7.00;;;;;;;3.28;58.29;99661.88;106142;1259;69139;-74
2023/02/22 10:29:42;;;;;;;8.40;5.90;;;;;;;3.26;56.27;99660.10;106007;1254;73703;-76
2023/02/22 10:32:25;;;;;;;10.30;7.70;;;;;;;3.14;56.30;99655.26;106203;1256;59689;-75
2023/02/22 10:34:54;;;;;;;9.00;6.60;;;;;;;3.09;55.91;99658.86;105983;1256;60512;-75
2023/02/22 10:37:31;;;;;;;10.10;8.60;;;;;;;3.08;57.45;99660.48;106264;1255;72166;-74
2023/02/22 10:40:12;;;;;;;10.60;7.60;;;;;;;3.23;57.52;99657.16;106333;1254;70834;-73
2023/02/22 10:42:41;;;;;;;12.60;8.80;;;;;;;3.62;57.86;99659.31;106142;1254;73734;-72
2023/02/22 10:45:27;;;;;;;9.90;8.00;;;;;;;4.06;58.27;99650.95;105945;1254;60432;-71
2023/02/22 10:47:57;;;;;;;9.90;8.20;;;;;;;4.62;58.89;99653.55;106008;1254;61497;-71
2023/02/22 10:50:28;;;;;;;8.90;7.70;;;;;;;5.03;58.06;99653.83;106059;1254;74206;-73
2023/02/22 10:52:56;;;;;;;9.90;7.80;;;;;;;5.25;55.76;99649.49;106059;1259;71077;-72
2023/02/22 10:55:26;;;;;;;10.90;8.00;;;;;;;5.25;54.63;99644.76;105973;1254;70251;-72
2023/02/22 10:58:05;;;;;;;10.60;7.80;;;;;;;5.10;53.47;99646.23;105995;1253;60450;-71
2023/02/22 11:00:38;;;;;;;9.30;7.10;;;;;;;4.91;53.28;99647.31;105950;1253;60472;-72
2023/02/22 11:03:18;;;;;;;10.90;7.20;;;;;;;4.83;54.06;99649.06;106023;1259;74069;-72
2023/02/22 11:05:46;;;;;;;8.60;7.00;;;;;;;4.75;54.14;99651.73;105924;1253;69389;-74
2023/02/22 11:08:29;;;;;;;9.30;6.40;;;;;;;4.71;55.61;99654.52;106014;1257;73954;-72
2023/02/22 11:11:17;;;;;;;8.30;6.60;;;;;;;4.68;53.46;99653.05;105706;1254;60531;-72
2023/02/22 11:13:54;;;;;;;8.00;6.40;;;;;;;4.53;51.89;99655.04;105794;1256;60504;-73
2023/02/22 11:16:33;;;;;;;7.00;5.90;;;;;;;4.26;53.20;99651.77;106017;1257;73384;-73
2023/02/22 11:19:23;;;;;;;10.00;6.70;;;;;;;4.14;52.93;99654.85;106053;1262;70068;-73
2023/02/22 11:22:08;;;;;;;9.70;6.10;;;;;;;3.96;52.35;99663.36;106083;1254;74041;-72
2023/02/22 11:25:13;;;;;;;8.40;6.80;;;;;;;3.69;52.19;99667.44;106339;1259;60586;-72
2023/02/22 11:27:45;;;;;;;8.00;6.80;;;;;;;3.38;52.94;99667.36;106088;1258;60355;-74
2023/02/22 11:30:17;;;;;;;11.10;7.40;;;;;;;3.19;54.65;99669.92;106216;1259;74769;-72
2023/02/22 11:32:48;;;;;;;10.30;7.90;;;;;;;3.14;54.88;99667.70;106113;1253;71310;-75
2023/02/22 11:35:49;;;;;;;11.60;8.40;;;;;;;3.12;55.02;99668.93;106279;1254;72356;-74
2023/02/22 11:38:31;;;;;;;9.40;6.80;;;;;;;3.07;55.43;99672.78;106229;1254;60460;-74
2023/02/22 11:41:03;;;;;;;11.10;7.40;;;;;;;3.02;55.60;99673.05;106254;1253;61492;-74
2023/02/22 11:43:31;;;;;;;9.60;7.20;;;;;;;3.03;56.27;99676.52;106078;1254;73833;-73
2023/02/22 11:46:08;;;;;;;11.10;8.20;;;;;;;3.04;54.81;99674.95;106050;1254;68293;-74
2023/02/22 11:48:39;;;;;;;10.90;7.70;;;;;;;3.00;54.65;99675.33;106214;1258;72666;-74
2023/02/22 11:51:30;;;;;;;11.40;7.30;;;;;;;3.03;55.18;99675.08;106134;1253;60456;-73
2023/02/22 11:54:07;;;;;;;9.30;6.60;;;;;;;3.14;54.95;99670.32;106328;1253;61345;-70
2023/02/22 11:56:38;;;;;;;11.20;6.60;;;;;;;3.34;56.12;99670.98;106282;1259;71737;-72